Time;durP1;ratioP1;P1;durP2;ratioP2;P2;SDS_P1;SDS_P2;PMS_P1;PMS_P2;Temp;Humidity;BMP_temperature;BMP_pressure;BME280_temperature;BME280_humidity;BME280_pressure;Samples;Min_cycle;Max_cycle;Signal;HPM_P1;HPM_P2
2022/02/26 00:00:46;;;;;;;75.10;9.77;;;4.00;99.90;;;;;;5094924;28;20020;-71
2022/02/26 00:03:12;;;;;;;74.57;8.90;;;3.90;99.90;;;;;;5095421;28;20111;-71
2022/02/26 00:05:40;;;;;;;71.63;11.13;;;3.90;99.90;;;;;;5094771;28;20360;-71
2022/02/26 00:08:05;;;;;;;69.63;8.50;;;3.90;99.90;;;;;;5094725;28;20028;-71
2022/02/26 00:10:31;;;;;;;84.95;8.52;;;3.90;99.90;;;;;;5093899;28;20111;-71
2022/02/26 00:12:57;;;;;;;75.47;9.23;;;3.80;99.90;;;;;;5093428;28;20020;-71
2022/02/26 00:15:22;;;;;;;68.10;8.38;;;3.90;99.90;;;;;;5094536;28;20340;-71
2022/02/26 00:17:48;;;;;;;71.72;10.55;;;3.80;99.90;;;;;;5094865;28;20439;-71
2022/02/26 00:20:14;;;;;;;77.60;9.82;;;3.80;99.90;;;;;;5094547;28;20069;-71
2022/02/26 00:22:40;;;;;;;95.50;11.88;;;3.80;99.90;;;;;;5095067;28;20380;-71
2022/02/26 00:25:07;;;;;;;73.57;8.75;;;3.80;99.90;;;;;;5094428;28;20115;-71
2022/02/26 00:27:32;;;;;;;79.70;9.73;;;3.90;99.90;;;;;;5094896;28;20028;-71
2022/02/26 00:29:58;;;;;;;73.78;9.35;;;3.80;99.90;;;;;;5094339;28;20043;-71
2022/02/26 00:32:23;;;;;;;97.90;10.70;;;3.80;99.90;;;;;;5094281;28;20392;-71
2022/02/26 00:34:49;;;;;;;84.15;10.48;;;3.70;99.90;;;;;;5094019;28;20379;-71
2022/02/26 00:37:15;;;;;;;54.53;7.55;;;3.70;99.90;;;;;;5094213;28;20024;-72
2022/02/26 00:39:41;;;;;;;54.30;7.85;;;3.70;99.90;;;;;;5094139;28;20020;-71
2022/02/26 00:42:07;;;;;;;73.40;9.20;;;3.70;99.90;;;;;;5094292;28;20449;-71
2022/02/26 00:44:32;;;;;;;86.72;9.35;;;3.60;99.90;;;;;;5094267;28;20081;-71
2022/02/26 00:46:58;;;;;;;107.07;9.13;;;3.60;99.90;;;;;;5094214;28;20123;-71
2022/02/26 00:52:08;;;;;;;73.97;9.88;;;3.60;99.90;;;;;;5094048;28;20074;-71
2022/02/26 00:54:34;;;;;;;93.18;11.27;;;3.60;99.90;;;;;;5093829;28;20023;-71
2022/02/26 00:56:59;;;;;;;92.53;11.88;;;3.60;99.90;;;;;;5094157;28;20056;-71
2022/02/26 00:59:25;;;;;;;64.68;9.07;;;3.50;99.90;;;;;;5093911;28;20024;-71
2022/02/26 01:01:50;;;;;;;60.15;7.63;;;3.50;99.90;;;;;;5093932;28;20032;-71
2022/02/26 01:04:16;;;;;;;69.55;8.15;;;3.50;99.90;;;;;;5094304;28;20097;-71
2022/02/26 01:06:42;;;;;;;53.75;7.28;;;3.50;99.90;;;;;;5094698;28;20071;-71
2022/02/26 01:09:07;;;;;;;75.30;7.88;;;3.50;99.90;;;;;;5093684;28;20116;-71
2022/02/26 01:11:33;;;;;;;65.38;6.82;;;3.40;99.90;;;;;;5093710;28;20028;-71
2022/02/26 01:13:59;;;;;;;60.67;7.18;;;3.40;99.90;;;;;;5093932;28;20024;-71
2022/02/26 01:16:25;;;;;;;62.03;7.57;;;3.30;99.90;;;;;;5093605;28;20032;-71
2022/02/26 01:18:51;;;;;;;78.10;8.77;;;3.30;99.90;;;;;;5093858;28;20051;-71
2022/02/26 01:21:17;;;;;;;75.15;7.93;;;3.20;99.90;;;;;;5093379;28;20665;-71
2022/02/26 01:23:43;;;;;;;60.40;8.98;;;3.30;99.90;;;;;;5093526;28;20028;-72
2022/02/26 01:26:09;;;;;;;58.15;8.25;;;3.20;99.90;;;;;;5093420;28;20040;-71
2022/02/26 01:28:34;;;;;;;52.75;8.10;;;3.20;99.90;;;;;;5093495;28;20030;-71
2022/02/26 01:31:00;;;;;;;65.47;7.90;;;3.20;99.90;;;;;;5093980;28;20103;-71
2022/02/26 01:33:25;;;;;;;59.40;7.45;;;3.20;99.90;;;;;;5093389;28;20024;-71
2022/02/26 01:35:51;;;;;;;74.55;8.95;;;3.10;99.90;;;;;;5093618;28;20460;-71
2022/02/26 01:38:16;;;;;;;68.32;9.55;;;3.10;99.90;;;;;;5093370;28;20032;-71
2022/02/26 01:40:42;;;;;;;64.00;7.07;;;3.20;99.90;;;;;;5093615;28;20029;-71
2022/02/26 01:43:08;;;;;;;61.38;8.38;;;3.20;99.90;;;;;;5093407;28;20074;-71
2022/02/26 01:45:33;;;;;;;67.55;7.15;;;3.10;99.90;;;;;;5093236;28;20020;-71
2022/02/26 01:47:59;;;;;;;53.33;7.35;;;3.10;99.90;;;;;;5093238;28;20395;-71
2022/02/26 01:50:25;;;;;;;56.33;7.15;;;3.10;99.90;;;;;;5093248;28;20020;-71
2022/02/26 01:52:51;;;;;;;62.20;7.93;;;3.20;99.90;;;;;;5093253;28;20024;-71
2022/02/26 01:55:17;;;;;;;54.75;7.10;;;3.20;99.90;;;;;;5093202;28;20028;-71
2022/02/26 01:57:42;;;;;;;80.07;7.78;;;3.10;99.90;;;;;;5093266;28;20027;-71
2022/02/26 02:00:10;;;;;;;75.90;9.73;;;3.10;99.90;;;;;;5093429;28;20031;-71
2022/02/26 02:02:36;;;;;;;72.53;6.47;;;3.00;99.90;;;;;;5093136;28;20468;-71
2022/02/26 02:05:03;;;;;;;72.88;7.88;;;2.90;99.90;;;;;;5093094;28;20024;-71
2022/02/26 02:07:29;;;;;;;60.95;9.18;;;2.90;99.90;;;;;;5093408;28;20020;-71
2022/02/26 02:09:55;;;;;;;63.75;9.20;;;3.00;99.90;;;;;;5093103;28;20019;-71
2022/02/26 02:12:20;;;;;;;69.85;7.05;;;3.00;99.90;;;;;;5093067;28;20035;-71
2022/02/26 02:14:47;;;;;;;82.40;8.13;;;3.00;99.90;;;;;;5092987;28;20555;-71
2022/02/26 02:17:13;;;;;;;53.60;7.43;;;3.00;99.90;;;;;;5093024;28;20036;-71
2022/02/26 02:19:39;;;;;;;54.70;8.00;;;2.90;99.90;;;;;;5093298;28;20024;-71
2022/02/26 02:22:06;;;;;;;59.78;6.72;;;2.90;99.90;;;;;;5093014;28;20020;-71
2022/02/26 02:24:32;;;;;;;66.70;5.60;;;3.00;99.90;;;;;;5092922;28;20395;-71
2022/02/26 02:27:02;;;;;;;70.75;8.73;;;2.90;99.90;;;;;;5092830;28;20480;-71
2022/02/26 02:29:28;;;;;;;41.63;7.15;;;2.80;99.90;;;;;;5093132;28;20032;-71
2022/02/26 02:31:54;;;;;;;75.63;9.70;;;2.80;99.90;;;;;;5092903;28;20503;-71
2022/02/26 02:34:20;;;;;;;58.83;6.97;;;2.70;99.90;;;;;;5094604;28;20024;-71
2022/02/26 02:36:47;;;;;;;64.97;7.47;;;2.70;99.90;;;;;;5096467;28;20150;-71
2022/02/26 02:39:13;;;;;;;65.00;8.05;;;2.70;99.90;;;;;;5096805;28;20024;-71
2022/02/26 02:41:40;;;;;;;70.30;6.35;;;2.70;99.90;;;;;;5096342;28;20028;-71
2022/02/26 02:44:06;;;;;;;58.92;6.38;;;2.60;99.90;;;;;;5096468;28;20032;-71
2022/02/26 02:46:32;;;;;;;53.42;7.75;;;2.50;99.90;;;;;;5096247;28;20437;-71
2022/02/26 02:48:58;;;;;;;62.47;8.70;;;2.50;99.90;;;;;;5096404;28;20020;-71
2022/02/26 02:51:24;;;;;;;82.25;8.10;;;2.40;99.90;;;;;;5097229;28;20016;-71
2022/02/26 02:53:49;;;;;;;69.57;7.75;;;2.40;99.90;;;;;;5096759;28;20020;-71
2022/02/26 02:56:15;;;;;;;57.78;8.05;;;2.30;99.90;;;;;;5096236;28;20526;-71
2022/02/26 02:58:40;;;;;;;66.40;7.05;;;2.20;99.90;;;;;;5097196;28;20054;-71
2022/02/26 03:01:06;;;;;;;65.45;6.43;;;2.20;99.90;;;;;;5096091;28;20028;-71
2022/02/26 03:03:32;;;;;;;57.72;7.35;;;2.20;99.90;;;;;;5096014;28;20024;-71
2022/02/26 03:05:57;;;;;;;61.33;6.85;;;2.20;99.90;;;;;;5096607;28;20024;-72
2022/02/26 03:08:24;;;;;;;61.33;7.00;;;2.30;99.90;;;;;;5095957;28;20027;-72
2022/02/26 03:10:54;;;;;;;55.72;6.82;;;2.30;99.90;;;;;;5096424;28;20027;-72
2022/02/26 03:13:21;;;;;;;69.10;7.13;;;2.30;99.90;;;;;;5096112;28;20021;-72
2022/02/26 03:15:51;;;;;;;65.82;9.35;;;2.10;99.90;;;;;;5095687;28;20024;-72
2022/02/26 03:18:18;;;;;;;53.30;7.63;;;2.00;99.90;;;;;;5095727;28;20024;-72
2022/02/26 03:20:44;;;;;;;78.28;12.05;;;1.90;99.90;;;;;;5095325;28;20020;-72
2022/02/26 03:23:10;;;;;;;60.30;12.60;;;1.70;99.90;;;;;;5095913;28;20368;-72
2022/02/26 03:25:36;;;;;;;89.47;17.08;;;1.60;99.90;;;;;;5095577;28;20036;-72
2022/02/26 03:28:01;;;;;;;103.10;21.65;;;1.40;99.90;;;;;;5095807;28;20032;-72
2022/02/26 03:30:27;;;;;;;78.90;14.93;;;1.30;99.90;;;;;;5095989;28;20093;-72
2022/02/26 03:32:53;;;;;;;119.93;23.55;;;1.10;99.90;;;;;;5095724;28;20020;-72
2022/02/26 03:35:18;;;;;;;88.78;14.15;;;1.10;99.90;;;;;;5095353;28;20021;-72
2022/02/26 03:37:45;;;;;;;128.55;25.65;;;1.10;99.90;;;;;;5095637;28;20020;-72
2022/02/26 03:40:11;;;;;;;142.35;31.10;;;1.00;99.90;;;;;;5095305;28;20024;-72
2022/02/26 03:42:38;;;;;;;110.82;24.27;;;1.00;99.90;;;;;;5095167;28;20484;-72
2022/02/26 03:45:05;;;;;;;94.13;18.75;;;1.00;99.90;;;;;;5095157;28;20027;-72
2022/02/26 03:47:31;;;;;;;90.30;20.80;;;0.90;99.90;;;;;;5095112;28;20383;-72
2022/02/26 03:49:56;;;;;;;85.93;17.42;;;0.70;99.90;;;;;;5095132;28;20024;-72
2022/02/26 03:52:22;;;;;;;89.32;15.95;;;0.60;99.90;;;;;;5095061;28;20039;-72
2022/02/26 03:54:48;;;;;;;242.15;48.05;;;0.50;99.90;;;;;;5095505;28;20103;-72
2022/02/26 03:57:14;;;;;;;253.82;53.80;;;0.50;99.90;;;;;;5095258;28;20027;-72
2022/02/26 03:59:40;;;;;;;240.80;50.65;;;0.50;99.90;;;;;;5095239;28;20446;-72
2022/02/26 04:02:06;;;;;;;145.10;35.05;;;0.60;99.90;;;;;;5094894;28;20070;-72
2022/02/26 04:04:33;;;;;;;103.72;23.92;;;0.60;99.90;;;;;;5094814;28;20491;-72
2022/02/26 04:06:58;;;;;;;87.00;16.90;;;0.60;99.90;;;;;;5093774;28;20525;-72
2022/02/26 04:09:24;;;;;;;75.25;12.23;;;0.60;99.90;;;;;;5095062;28;20024;-72
2022/02/26 04:11:50;;;;;;;74.00;10.40;;;0.50;99.90;;;;;;5094955;28;20115;-72
2022/02/26 04:14:15;;;;;;;78.20;13.43;;;0.50;99.90;;;;;;5094675;28;20491;-72
2022/02/26 04:16:41;;;;;;;78.05;12.90;;;0.50;99.90;;;;;;5094575;28;20054;-72
2022/02/26 04:19:06;;;;;;;69.75;14.45;;;0.40;99.90;;;;;;5094833;28;20544;-72
2022/02/26 04:21:33;;;;;;;67.88;12.15;;;0.30;99.90;;;;;;5094431;28;20047;-72
2022/02/26 04:23:59;;;;;;;77.20;11.35;;;0.10;99.90;;;;;;5094533;28;20028;-72
2022/02/26 04:26:25;;;;;;;70.28;9.85;;;0.10;99.90;;;;;;5094258;28;20035;-72
2022/02/26 04:28:52;;;;;;;56.50;7.35;;;0.00;99.90;;;;;;5094393;28;20047;-72
2022/02/26 04:31:18;;;;;;;83.40;8.73;;;0.00;99.90;;;;;;5094338;28;20020;-72
2022/02/26 04:33:44;;;;;;;55.78;9.73;;;0.10;99.90;;;;;;5094349;28;20020;-72
2022/02/26 04:36:10;;;;;;;33.15;5.70;;;0.10;99.90;;;;;;5094750;28;20422;-72
2022/02/26 04:38:36;;;;;;;38.47;5.80;;;0.00;99.90;;;;;;5094207;28;20031;-72
2022/02/26 04:41:03;;;;;;;35.67;5.05;;;-0.10;99.90;;;;;;5094219;28;20020;-72
2022/02/26 04:43:30;;;;;;;67.60;6.43;;;-0.10;99.90;;;;;;5094121;28;20032;-72
2022/02/26 04:45:55;;;;;;;67.70;7.65;;;-0.10;99.90;;;;;;5093999;28;20032;-72
2022/02/26 04:48:21;;;;;;;62.15;5.88;;;-0.10;99.90;;;;;;5094286;28;20020;-72
2022/02/26 04:50:47;;;;;;;61.42;7.40;;;-0.20;99.90;;;;;;5093984;28;20020;-72
2022/02/26 04:53:12;;;;;;;49.97;7.50;;;-0.30;99.90;;;;;;5094216;28;20032;-72
2022/02/26 04:55:38;;;;;;;46.53;7.07;;;-0.30;99.90;;;;;;5093911;28;20480;-72
2022/02/26 04:58:04;;;;;;;58.22;6.88;;;-0.30;99.90;;;;;;5093787;28;20028;-72
2022/02/26 05:00:29;;;;;;;61.10;8.95;;;-0.30;99.90;;;;;;5093823;28;20070;-72
2022/02/26 05:02:55;;;;;;;60.22;6.45;;;-0.30;99.90;;;;;;5093852;28;20419;-72
2022/02/26 05:05:21;;;;;;;34.78;4.60;;;-0.40;99.90;;;;;;5093687;28;20020;-72
2022/02/26 05:07:46;;;;;;;42.60;6.05;;;-0.50;99.90;;;;;;5093615;28;20028;-72
2022/02/26 05:10:13;;;;;;;47.80;6.35;;;-0.50;99.90;;;;;;5093737;28;20016;-72
2022/02/26 05:12:38;;;;;;;49.05;6.53;;;-0.60;99.90;;;;;;5093699;28;20020;-72
2022/02/26 05:15:05;;;;;;;44.55;5.18;;;-0.60;99.90;;;;;;5093631;28;20099;-72
2022/02/26 05:17:30;;;;;;;50.72;5.57;;;-0.60;99.90;;;;;;5093862;28;20024;-73
2022/02/26 05:19:56;;;;;;;55.50;7.55;;;-0.60;99.90;;;;;;5093584;28;20074;-72
2022/02/26 05:22:22;;;;;;;53.42;5.82;;;-0.50;99.90;;;;;;5093569;28;20069;-72
2022/02/26 05:24:47;;;;;;;61.28;5.57;;;-0.60;99.90;;;;;;5093687;28;20035;-72
2022/02/26 05:27:13;;;;;;;55.35;7.50;;;-0.60;99.90;;;;;;5093370;28;20131;-72
2022/02/26 05:29:39;;;;;;;45.72;4.65;;;-0.70;99.90;;;;;;5093484;28;20035;-72
2022/02/26 05:32:05;;;;;;;37.17;4.95;;;-0.70;99.90;;;;;;5093491;28;20518;-72
2022/02/26 05:34:31;;;;;;;61.75;6.70;;;-0.80;99.90;;;;;;5093627;28;20085;-72
2022/02/26 05:36:56;;;;;;;64.63;5.95;;;-0.80;99.90;;;;;;5093446;28;20028;-72
2022/02/26 05:39:22;;;;;;;41.65;5.82;;;-0.70;99.90;;;;;;5093438;28;20026;-72
2022/02/26 05:41:48;;;;;;;49.50;6.30;;;-0.60;99.90;;;;;;5093420;28;20028;-72
2022/02/26 05:44:13;;;;;;;44.70;6.40;;;-0.60;99.90;;;;;;5093366;28;20476;-72
2022/02/26 05:46:39;;;;;;;79.10;9.20;;;-0.50;99.90;;;;;;5093180;28;20103;-72
2022/02/26 05:49:05;;;;;;;49.10;5.00;;;-0.50;99.90;;;;;;5092048;28;20032;-72
2022/02/26 05:51:30;;;;;;;48.10;5.80;;;-0.50;99.90;;;;;;5093532;28;20380;-72
2022/02/26 05:53:56;;;;;;;54.85;6.07;;;-0.60;99.90;;;;;;5093477;28;20080;-72
2022/02/26 05:56:21;;;;;;;49.88;8.85;;;-0.60;99.90;;;;;;5093567;28;20028;-72
2022/02/26 05:58:47;;;;;;;62.83;7.22;;;-0.70;99.90;;;;;;5093527;28;20048;-72
2022/02/26 06:01:13;;;;;;;59.80;5.78;;;-0.80;99.90;;;;;;5093245;28;20024;-72
2022/02/26 06:03:39;;;;;;;47.70;5.05;;;-0.80;99.90;;;;;;5093417;28;20028;-72
2022/02/26 06:06:04;;;;;;;26.58;4.63;;;-0.80;99.90;;;;;;5093027;28;20028;-72
2022/02/26 06:08:30;;;;;;;46.40;5.50;;;-0.90;99.90;;;;;;5093912;28;20027;-72
2022/02/26 06:10:55;;;;;;;49.97;5.97;;;-0.90;99.90;;;;;;5097096;28;20028;-72
2022/02/26 06:13:21;;;;;;;47.88;7.80;;;-0.80;99.90;;;;;;5097010;28;20484;-72
2022/02/26 06:15:47;;;;;;;66.85;6.18;;;-0.80;99.90;;;;;;5096981;28;20099;-72
2022/02/26 06:18:12;;;;;;;67.35;6.70;;;-0.70;99.90;;;;;;5097190;28;20020;-72
2022/02/26 06:20:38;;;;;;;48.83;6.00;;;-0.70;99.90;;;;;;5097456;28;20058;-72
2022/02/26 06:23:03;;;;;;;37.47;5.68;;;-0.80;99.90;;;;;;5096834;28;20534;-72
2022/02/26 06:25:30;;;;;;;35.60;4.65;;;-0.90;99.90;;;;;;5096859;28;20467;-72
2022/02/26 06:27:55;;;;;;;44.78;5.80;;;-1.00;99.90;;;;;;5096977;28;20032;-72
2022/02/26 06:30:21;;;;;;;45.03;6.40;;;-1.10;99.90;;;;;;5096713;28;20099;-72
2022/02/26 06:32:47;;;;;;;38.90;9.13;;;-1.10;99.90;;;;;;5096615;28;20024;-72
2022/02/26 06:35:13;;;;;;;62.35;10.65;;;-1.10;99.90;;;;;;5096508;28;20522;-72
2022/02/26 06:37:39;;;;;;;71.63;13.18;;;-1.00;99.90;;;;;;5096844;28;20020;-72
2022/02/26 06:40:06;;;;;;;69.85;10.60;;;-1.00;99.90;;;;;;5096549;28;20035;-72
2022/02/26 06:42:31;;;;;;;57.95;7.20;;;-0.90;99.90;;;;;;5096350;28;20028;-72
2022/02/26 06:44:57;;;;;;;59.47;6.70;;;-0.70;99.90;;;;;;5096335;28;20027;-72
2022/02/26 06:47:22;;;;;;;43.17;7.30;;;-0.60;99.90;;;;;;5096554;28;20123;-72
2022/02/26 06:49:48;;;;;;;53.65;6.70;;;-0.60;99.90;;;;;;5096335;28;20035;-72
2022/02/26 06:52:14;;;;;;;54.22;9.20;;;-0.60;99.90;;;;;;5096558;28;20016;-72
2022/02/26 06:54:39;;;;;;;63.33;13.48;;;-0.60;99.90;;;;;;5096192;28;20433;-72
2022/02/26 06:57:05;;;;;;;128.80;23.65;;;-0.60;99.90;;;;;;5096322;28;20031;-72
2022/02/26 06:59:31;;;;;;;114.00;19.38;;;-0.50;99.90;;;;;;5096199;28;20020;-72
2022/02/26 07:01:57;;;;;;;69.55;9.68;;;-0.50;99.90;;;;;;5096334;28;20020;-72
2022/02/26 07:04:22;;;;;;;84.28;29.73;;;-0.30;99.90;;;;;;5096009;28;20028;-72
2022/02/26 07:06:48;;;;;;;71.60;26.98;;;-0.20;99.90;;;;;;5095843;28;20028;-72
2022/02/26 07:09:18;;;;;;;67.63;20.58;;;-0.10;99.90;;;;;;5096387;28;20069;-72
2022/02/26 07:11:46;;;;;;;77.82;14.95;;;-0.10;99.90;;;;;;5095938;28;20012;-72
2022/02/26 07:14:13;;;;;;;74.78;15.07;;;0.00;99.90;;;;;;5095820;28;20074;-72
2022/02/26 07:16:39;;;;;;;70.15;12.07;;;0.10;99.90;;;;;;5095687;28;20498;-72
2022/02/26 07:19:06;;;;;;;68.45;10.73;;;0.20;99.90;;;;;;5095616;28;20115;-72
2022/02/26 07:21:32;;;;;;;63.75;12.65;;;0.40;99.90;;;;;;5095602;28;20032;-72
2022/02/26 07:23:58;;;;;;;55.72;7.97;;;0.40;99.90;;;;;;5095741;28;20032;-72
2022/02/26 07:26:28;;;;;;;58.17;10.15;;;0.60;99.90;;;;;;5095328;28;20028;-72
2022/02/26 07:28:53;;;;;;;66.35;7.18;;;0.60;99.90;;;;;;5095597;28;20043;-72
2022/02/26 07:31:19;;;;;;;80.45;7.40;;;0.80;99.90;;;;;;5095550;28;20475;-72
2022/02/26 07:33:46;;;;;;;47.55;7.30;;;0.90;99.90;;;;;;5095803;28;20028;-72
2022/02/26 07:36:12;;;;;;;57.78;10.60;;;1.00;99.90;;;;;;5095801;28;20020;-72
2022/02/26 07:38:39;;;;;;;59.65;10.35;;;1.10;99.90;;;;;;5095496;28;20032;-72
2022/02/26 07:41:07;;;;;;;79.03;16.08;;;1.20;99.90;;;;;;5095370;28;20476;-72
2022/02/26 07:43:35;;;;;;;71.47;7.85;;;1.30;99.90;;;;;;5095361;28;20476;-72
2022/02/26 07:46:01;;;;;;;70.22;8.27;;;1.50;99.90;;;;;;5095041;28;20016;-72
2022/02/26 07:48:27;;;;;;;67.55;6.95;;;1.60;99.90;;;;;;5095812;28;20494;-72
2022/02/26 07:50:52;;;;;;;70.47;9.02;;;1.80;99.90;;;;;;5095127;28;20016;-72
2022/02/26 07:53:18;;;;;;;58.22;6.25;;;1.90;99.90;;;;;;5095423;28;20468;-72
2022/02/26 07:55:44;;;;;;;51.03;6.05;;;2.10;99.90;;;;;;5094976;28;20020;-72
2022/02/26 07:58:09;;;;;;;46.15;5.43;;;2.10;99.90;;;;;;5095341;28;20024;-72
2022/02/26 08:00:35;;;;;;;56.35;6.38;;;2.20;99.90;;;;;;5094967;28;20020;-72
2022/02/26 08:03:01;;;;;;;61.95;6.57;;;2.30;99.90;;;;;;5094874;28;20161;-71
2022/02/26 08:05:27;;;;;;;57.60;7.07;;;2.40;99.90;;;;;;5094858;28;20164;-72
2022/02/26 08:07:53;;;;;;;75.55;8.95;;;2.50;99.90;;;;;;5095294;28;20384;-72
2022/02/26 08:10:22;;;;;;;68.30;6.65;;;2.60;99.90;;;;;;5094807;28;20016;-72
2022/02/26 08:12:49;;;;;;;57.38;8.35;;;2.80;99.90;;;;;;5093426;28;20025;-71
2022/02/26 08:15:15;;;;;;;81.72;8.77;;;2.90;99.90;;;;;;5094811;28;20111;-71
2022/02/26 08:17:44;;;;;;;69.60;6.80;;;3.00;99.90;;;;;;5094928;28;20098;-72
2022/02/26 08:20:12;;;;;;;59.83;7.88;;;3.10;99.90;;;;;;5094550;28;20521;-72
2022/02/26 08:22:37;;;;;;;61.17;7.30;;;3.20;99.90;;;;;;5094535;28;20096;-71
2022/02/26 08:25:04;;;;;;;49.22;6.93;;;3.30;99.90;;;;;;5094429;28;20480;-71
2022/02/26 08:27:30;;;;;;;63.25;8.07;;;3.30;99.90;;;;;;5094357;28;20032;-71
2022/02/26 08:29:56;;;;;;;67.10;6.28;;;3.40;99.90;;;;;;5094455;28;20522;-71
2022/02/26 08:32:21;;;;;;;66.63;7.40;;;3.50;99.90;;;;;;5093675;28;20024;-71
2022/02/26 08:34:47;;;;;;;42.53;5.68;;;3.60;99.90;;;;;;5094223;28;20020;-72
2022/02/26 08:37:13;;;;;;;49.35;6.28;;;3.80;99.90;;;;;;5094416;28;20472;-72
2022/02/26 08:39:38;;;;;;;43.97;7.22;;;3.90;99.90;;;;;;5094245;28;20024;-72
2022/02/26 08:42:05;;;;;;;44.78;6.68;;;4.00;99.90;;;;;;5094470;28;20081;-72
2022/02/26 08:44:31;;;;;;;55.30;6.32;;;4.10;99.90;;;;;;5094087;28;20024;-72
2022/02/26 08:46:57;;;;;;;75.90;9.02;;;4.30;99.90;;;;;;5094250;28;20027;-72
2022/02/26 08:49:22;;;;;;;69.20;7.55;;;4.40;99.90;;;;;;5094658;28;20132;-72
2022/02/26 08:51:48;;;;;;;59.15;7.32;;;4.50;99.90;;;;;;5094289;28;20024;-72
2022/02/26 08:54:14;;;;;;;54.65;7.60;;;4.50;99.90;;;;;;5093948;28;20023;-71
2022/02/26 08:56:39;;;;;;;60.50;7.32;;;4.70;99.90;;;;;;5093796;28;20028;-71
2022/02/26 08:59:05;;;;;;;53.28;6.25;;;4.70;99.90;;;;;;5093899;28;20024;-71
2022/02/26 09:01:31;;;;;;;52.97;6.30;;;4.90;99.90;;;;;;5093911;28;20097;-71
2022/02/26 09:03:57;;;;;;;51.22;6.90;;;5.00;99.90;;;;;;5094132;28;20020;-72
2022/02/26 09:06:23;;;;;;;47.47;5.15;;;5.10;99.90;;;;;;5094278;28;20070;-72
2022/02/26 09:08:49;;;;;;;55.55;6.05;;;5.20;99.90;;;;;;5093798;28;20028;-72
2022/02/26 09:11:15;;;;;;;50.50;6.13;;;5.20;99.90;;;;;;5094104;28;20464;-73
2022/02/26 09:13:42;;;;;;;63.03;6.07;;;5.30;99.90;;;;;;5093695;28;20020;-73
2022/02/26 09:16:12;;;;;;;38.35;5.18;;;5.40;99.90;;;;;;5093759;28;20020;-72
2022/02/26 09:18:38;;;;;;;40.83;5.32;;;5.60;99.90;;;;;;5093895;28;20024;-72
2022/02/26 09:21:05;;;;;;;36.55;5.40;;;5.70;99.90;;;;;;5093632;28;20020;-73
2022/02/26 09:23:32;;;;;;;45.00;6.57;;;5.80;99.90;;;;;;5093622;28;20016;-72
2022/02/26 09:25:57;;;;;;;32.35;6.13;;;6.00;99.90;;;;;;5093385;28;20392;-73
2022/02/26 09:28:23;;;;;;;58.95;5.55;;;6.10;99.90;;;;;;5093507;28;20024;-72
2022/02/26 09:30:49;;;;;;;52.03;6.80;;;6.20;99.90;;;;;;5093772;28;20024;-73
2022/02/26 09:33:15;;;;;;;41.63;6.25;;;6.20;99.90;;;;;;5093617;28;20047;-72
2022/02/26 09:35:40;;;;;;;35.10;6.20;;;6.30;99.90;;;;;;5093482;28;20422;-73
2022/02/26 09:38:06;;;;;;;33.10;5.68;;;6.30;99.90;;;;;;5093390;28;20388;-73
2022/02/26 09:40:33;;;;;;;32.22;4.85;;;6.50;99.90;;;;;;5093432;28;20024;-73
2022/02/26 09:43:01;;;;;;;37.28;4.78;;;6.50;99.90;;;;;;5094754;28;20438;-73
2022/02/26 09:45:27;;;;;;;31.02;4.78;;;6.50;99.90;;;;;;5097493;28;20031;-72
2022/02/26 09:47:52;;;;;;;47.05;5.80;;;6.50;99.90;;;;;;5097422;28;20069;-73
2022/02/26 09:50:18;;;;;;;43.47;5.80;;;6.50;99.90;;;;;;5097418;28;20023;-73
2022/02/26 09:52:48;;;;;;;36.17;5.45;;;6.60;99.90;;;;;;5097412;28;20017;-73
2022/02/26 09:55:13;;;;;;;42.70;5.15;;;6.70;99.90;;;;;;5097318;28;20034;-72
2022/02/26 09:57:39;;;;;;;57.47;9.13;;;6.80;99.90;;;;;;5097628;28;20024;-72
2022/02/26 10:00:07;;;;;;;29.60;5.95;;;6.80;99.90;;;;;;5097299;28;20023;-72
2022/02/26 10:02:35;;;;;;;34.72;4.82;;;6.90;99.90;;;;;;5097863;28;20578;-77
2022/02/26 10:05:03;;;;;;;27.58;4.30;;;6.90;99.90;;;;;;5097658;28;20024;-76
2022/02/26 10:07:32;;;;;;;53.88;6.13;;;6.90;99.90;;;;;;5097492;28;20051;-73
2022/02/26 10:09:58;;;;;;;42.30;6.35;;;7.10;99.90;;;;;;5097109;28;20024;-73
2022/02/26 10:12:27;;;;;;;38.78;5.07;;;7.20;99.90;;;;;;5097517;28;20476;-76
2022/02/26 10:14:55;;;;;;;26.08;4.50;;;7.30;99.90;;;;;;5097337;28;20095;-75
2022/02/26 10:17:37;;;;;;;32.80;6.15;;;7.30;99.90;;;;;;5097506;28;20047;-72
2022/02/26 10:20:12;;;;;;;38.83;4.70;;;7.40;99.90;;;;;;5097217;28;20062;-72
2022/02/26 10:22:42;;;;;;;46.35;5.10;;;7.40;99.90;;;;;;5097002;28;20020;-72
2022/02/26 10:25:18;;;;;;;29.00;5.47;;;7.50;99.90;;;;;;5096736;28;20039;-72
2022/02/26 10:27:47;;;;;;;32.08;4.88;;;7.60;99.90;;;;;;5096763;28;20043;-72
2022/02/26 10:30:19;;;;;;;29.50;6.03;;;7.70;99.90;;;;;;5096878;28;20020;-72
2022/02/26 10:33:11;;;;;;;34.45;8.23;;;7.80;99.90;;;;;;5097000;28;20024;-72
2022/02/26 10:35:40;;;;;;;47.08;12.40;;;7.80;99.90;;;;;;5096403;28;20012;-72
2022/02/26 10:38:28;;;;;;;37.10;5.25;;;7.90;99.90;;;;;;5096904;28;20062;-72
2022/02/26 10:41:08;;;;;;;29.52;4.03;;;7.90;99.90;;;;;;5096084;28;20030;-72
2022/02/26 10:43:49;;;;;;;13.65;3.15;;;7.90;99.90;;;;;;5096424;28;20361;-72
2022/02/26 10:46:31;;;;;;;45.85;4.47;;;8.10;99.90;;;;;;5096341;28;20028;-72
2022/02/26 10:49:04;;;;;;;33.72;4.20;;;8.20;99.90;;;;;;5095939;28;20483;-72
2022/02/26 10:51:35;;;;;;;15.70;4.25;;;8.40;99.90;;;;;;5096611;28;20023;-72
2022/02/26 10:54:07;;;;;;;26.98;4.13;;;8.40;99.90;;;;;;5095804;28;20031;-72
2022/02/26 10:56:37;;;;;;;47.35;5.03;;;8.40;99.90;;;;;;5096303;28;20085;-73
2022/02/26 10:59:04;;;;;;;27.75;3.70;;;8.40;99.90;;;;;;5096437;28;20028;-73
2022/02/26 11:01:31;;;;;;;20.55;3.10;;;8.60;99.90;;;;;;5096373;28;20046;-73
2022/02/26 11:03:57;;;;;;;20.17;2.95;;;8.90;99.90;;;;;;5096355;28;20028;-73
2022/02/26 11:06:23;;;;;;;27.30;4.25;;;8.90;99.90;;;;;;5095899;28;20020;-73
2022/02/26 11:08:52;;;;;;;22.23;4.68;;;9.20;99.90;;;;;;5096003;28;20070;-73
2022/02/26 11:11:20;;;;;;;28.00;4.72;;;9.50;99.90;;;;;;5096554;28;20584;-73
2022/02/26 11:13:49;;;;;;;17.80;3.03;;;9.70;99.90;;;;;;5096449;28;20016;-73
2022/02/26 11:16:17;;;;;;;22.65;3.13;;;9.60;99.90;;;;;;5095754;28;20391;-72
2022/02/26 11:18:46;;;;;;;23.38;3.65;;;9.60;99.90;;;;;;5095882;28;20073;-72
2022/02/26 11:21:14;;;;;;;29.52;4.55;;;9.60;99.90;;;;;;5096035;28;20035;-72
2022/02/26 11:23:40;;;;;;;41.38;3.60;;;9.40;99.90;;;;;;5095727;28;20024;-72
2022/02/26 11:26:07;;;;;;;19.95;3.72;;;9.40;99.90;;;;;;5095499;28;20035;-73
2022/02/26 11:28:40;;;;;;;31.85;4.75;;;9.50;99.90;;;;;;5095411;28;20168;-73
2022/02/26 11:31:11;;;;;;;18.38;3.05;;;9.70;99.90;;;;;;5095871;28;20042;-73
2022/02/26 11:33:37;;;;;;;19.50;3.42;;;10.10;99.90;;;;;;5095187;28;20028;-73
2022/02/26 11:36:05;;;;;;;22.98;3.90;;;10.30;99.90;;;;;;5095424;28;20042;-74
2022/02/26 11:38:36;;;;;;;20.00;3.38;;;10.50;99.90;;;;;;5095785;28;20017;-73
2022/02/26 11:41:23;;;;;;;30.80;3.40;;;10.40;99.90;;;;;;5095369;28;20028;-73
2022/02/26 11:43:55;;;;;;;18.55;4.53;;;10.50;99.90;;;;;;5094166;28;20387;-73
2022/02/26 11:46:28;;;;;;;19.90;2.70;;;10.30;99.90;;;;;;5095208;28;20020;-72
2022/02/26 11:48:56;;;;;;;15.68;3.83;;;10.60;99.90;;;;;;5095294;28;20031;-73
2022/02/26 11:51:33;;;;;;;22.67;3.38;;;10.60;99.90;;;;;;5095639;28;20032;-73
2022/02/26 11:53:59;;;;;;;28.25;4.10;;;10.70;99.90;;;;;;5095166;28;20052;-73
2022/02/26 11:56:40;;;;;;;27.38;3.58;;;10.60;99.90;;;;;;5095295;28;20051;-73
2022/02/26 11:59:05;;;;;;;22.30;4.65;;;10.90;99.90;;;;;;5095225;28;20024;-73
2022/02/26 12:01:31;;;;;;;18.92;3.00;;;11.10;99.90;;;;;;5094917;28;20476;-73
2022/02/26 12:03:57;;;;;;;14.55;3.13;;;11.40;99.90;;;;;;5094971;28;20024;-73
2022/02/26 12:06:35;;;;;;;29.17;3.65;;;11.60;99.90;;;;;;5093057;28;20031;-72
2022/02/26 12:09:10;;;;;;;16.42;3.35;;;11.80;99.90;;;;;;5095028;28;20069;-73
2022/02/26 12:11:42;;;;;;;18.33;3.33;;;11.70;99.90;;;;;;5095067;28;20016;-73
2022/02/26 12:14:19;;;;;;;31.08;4.05;;;11.70;99.90;;;;;;5094840;28;20027;-74
2022/02/26 12:16:48;;;;;;;15.18;3.08;;;11.80;99.90;;;;;;5095249;28;20435;-74
2022/02/26 12:19:14;;;;;;;18.13;2.92;;;12.10;99.90;;;;;;5094840;28;20031;-73
2022/02/26 12:21:45;;;;;;;17.00;2.55;;;12.50;99.90;;;;;;5095076;28;20024;-73
2022/02/26 12:24:15;;;;;;;18.52;3.13;;;12.60;99.90;;;;;;5094718;28;20546;-74
2022/02/26 12:26:46;;;;;;;20.52;3.25;;;12.60;99.90;;;;;;5094354;28;20039;-73
2022/02/26 12:29:43;;;;;;;18.60;2.72;;;12.40;99.90;;;;;;5094657;28;20020;-73
2022/02/26 12:32:16;;;;;;;24.02;3.38;;;12.40;99.90;;;;;;5089746;28;20063;-73
2022/02/26 12:35:01;;;;;;;22.73;3.88;;;12.10;99.90;;;;;;5094482;28;20099;-73
2022/02/26 12:37:33;;;;;;;12.55;2.95;;;12.20;99.90;;;;;;5094389;28;20027;-73
2022/02/26 12:40:04;;;;;;;23.88;3.53;;;12.60;99.90;;;;;;5094876;28;20410;-73
2022/02/26 12:42:32;;;;;;;18.55;3.42;;;12.90;99.90;;;;;;5094292;28;20070;-74